Time;durP1;ratioP1;P1;durP2;ratioP2;P2;SDS_P1;SDS_P2;PMS_P1;PMS_P2;Temp;Humidity;BMP_temperature;BMP_pressure;BME280_temperature;BME280_humidity;BME280_pressure;Samples;Min_cycle;Max_cycle;Signal;HPM_P1;HPM_P2
2021/10/02 00:46:47;;;;;;;7.10;4.22;;;13.90;99.90;;;;;;5055850;28;20040;-86
2021/10/02 00:49:14;;;;;;;9.02;4.28;;;13.90;99.90;;;;;;5053944;28;20116;-87
2021/10/02 00:51:40;;;;;;;8.30;4.20;;;13.90;99.90;;;;;;5054320;28;20093;-85
2021/10/02 00:54:06;;;;;;;7.00;4.18;;;13.90;99.90;;;;;;5054004;28;20485;-85
2021/10/02 00:56:32;;;;;;;8.52;4.00;;;13.90;99.90;;;;;;5054146;28;20036;-86
2021/10/02 00:58:58;;;;;;;7.07;4.38;;;13.90;99.90;;;;;;5054475;28;20033;-85
2021/10/02 01:01:29;;;;;;;7.55;4.35;;;13.90;99.90;;;;;;5053043;28;20033;-86
2021/10/02 01:04:40;;;;;;;7.90;4.78;;;13.90;99.90;;;;;;5052985;28;20374;-85
2021/10/02 01:07:49;;;;;;;8.13;4.50;;;13.90;99.90;;;;;;5054074;28;20021;-86
2021/10/02 01:10:41;;;;;;;8.52;4.30;;;13.90;99.90;;;;;;5052411;28;20021;-85
2021/10/02 01:13:25;;;;;;;8.90;5.00;;;13.90;99.90;;;;;;5052983;28;20102;-85
2021/10/02 01:16:07;;;;;;;7.82;4.90;;;13.90;99.90;;;;;;5052930;28;20071;-85
2021/10/02 01:18:41;;;;;;;7.32;5.05;;;13.90;99.90;;;;;;5075165;23;20043;-86
2021/10/02 01:21:37;;;;;;;8.10;5.00;;;13.90;99.90;;;;;;5052359;28;20021;-86
2021/10/02 01:24:12;;;;;;;8.38;4.97;;;13.90;99.90;;;;;;5051987;28;20377;-86
2021/10/02 01:27:14;;;;;;;7.93;5.15;;;13.90;99.90;;;;;;5052151;28;20021;-86
2021/10/02 01:29:42;;;;;;;7.65;4.85;;;13.90;99.90;;;;;;5051333;28;20079;-86
2021/10/02 01:32:24;;;;;;;10.55;5.90;;;13.90;99.90;;;;;;5051524;28;20109;-85
2021/10/02 01:37:39;;;;;;;8.77;5.57;;;13.90;99.90;;;;;;5052530;28;20035;-85
2021/10/02 01:48:16;;;;;;;7.60;5.32;;;13.90;99.90;;;;;;5055973;28;20036;-86
2021/10/02 01:50:46;;;;;;;9.63;5.00;;;13.90;99.90;;;;;;5055450;28;20013;-85
2021/10/02 01:53:14;;;;;;;8.82;5.05;;;13.90;99.90;;;;;;5054586;28;20388;-86
2021/10/02 01:55:40;;;;;;;9.65;5.45;;;13.90;99.90;;;;;;5054698;28;20025;-86
2021/10/02 01:58:11;;;;;;;8.27;5.10;;;13.90;99.90;;;;;;5054502;28;20029;-86
2021/10/02 02:00:42;;;;;;;7.65;4.30;;;13.90;99.90;;;;;;5054072;28;20025;-85
2021/10/02 02:03:11;;;;;;;8.55;5.10;;;13.90;99.90;;;;;;5054537;28;20090;-86
2021/10/02 02:05:38;;;;;;;6.95;5.15;;;13.90;99.90;;;;;;5054369;28;20047;-86
2021/10/02 02:08:10;;;;;;;7.90;5.18;;;13.90;99.90;;;;;;5054553;28;20029;-85
2021/10/02 02:10:39;;;;;;;6.28;4.63;;;13.90;99.90;;;;;;5053790;28;20032;-86
2021/10/02 02:13:05;;;;;;;8.57;5.47;;;13.90;99.90;;;;;;5054461;28;20112;-85
2021/10/02 02:15:32;;;;;;;7.78;5.10;;;13.90;99.90;;;;;;5054385;28;20026;-87
2021/10/02 02:18:02;;;;;;;9.48;4.80;;;13.90;99.90;;;;;;5055809;28;20028;-85
2021/10/02 02:20:41;;;;;;;10.35;5.22;;;13.90;99.90;;;;;;5053670;28;20033;-86
2021/10/02 02:23:10;;;;;;;9.98;5.20;;;13.90;99.90;;;;;;5054303;28;20025;-86
2021/10/02 02:25:37;;;;;;;9.90;5.10;;;13.90;99.90;;;;;;5053952;28;20450;-85
2021/10/02 02:28:06;;;;;;;9.10;4.97;;;13.90;99.90;;;;;;5055509;28;20104;-86
2021/10/02 02:30:33;;;;;;;6.65;4.20;;;13.90;99.90;;;;;;5054348;28;20108;-86
2021/10/02 02:32:59;;;;;;;7.82;4.40;;;13.90;99.90;;;;;;5054561;28;20086;-86
2021/10/02 02:35:26;;;;;;;7.78;4.95;;;13.90;99.90;;;;;;5054575;28;20389;-86
2021/10/02 02:37:52;;;;;;;8.52;4.40;;;13.90;99.90;;;;;;5054762;28;20032;-86
2021/10/02 02:40:18;;;;;;;8.50;4.60;;;13.90;99.90;;;;;;5053181;28;20017;-86
2021/10/02 02:42:44;;;;;;;8.07;4.50;;;13.90;99.90;;;;;;5053759;28;20032;-86
2021/10/02 02:45:13;;;;;;;7.82;3.90;;;13.90;99.90;;;;;;5053557;28;20033;-86
2021/10/02 02:47:56;;;;;;;9.27;4.78;;;13.90;99.90;;;;;;5053874;28;20112;-86
2021/10/02 02:50:57;;;;;;;8.40;4.55;;;13.90;99.90;;;;;;5054052;28;20386;-87
2021/10/02 02:53:31;;;;;;;7.07;4.13;;;13.90;99.90;;;;;;5054801;28;20025;-85
2021/10/02 02:56:25;;;;;;;10.98;4.45;;;13.90;99.90;;;;;;5053591;28;20025;-86
2021/10/02 02:58:54;;;;;;;7.80;3.85;;;13.90;99.90;;;;;;5054022;28;20036;-85
2021/10/02 03:01:21;;;;;;;5.93;3.55;;;13.90;99.90;;;;;;5053471;28;20489;-86
2021/10/02 03:03:51;;;;;;;7.35;3.78;;;13.90;99.90;;;;;;5052805;28;20155;-86
2021/10/02 03:06:19;;;;;;;6.45;4.00;;;13.90;99.90;;;;;;5056214;28;20021;-86
2021/10/02 03:08:51;;;;;;;6.97;3.85;;;13.90;99.90;;;;;;5054897;28;20029;-86
2021/10/02 03:11:19;;;;;;;6.13;3.60;;;13.90;99.90;;;;;;5054183;28;20032;-87
2021/10/02 03:13:50;;;;;;;6.25;3.55;;;13.90;99.90;;;;;;5055402;28;20428;-85
2021/10/02 03:16:18;;;;;;;5.80;2.88;;;13.90;99.90;;;;;;5054380;28;20033;-86
2021/10/02 03:18:48;;;;;;;4.45;2.30;;;13.90;99.90;;;;;;5053071;28;20032;-86
2021/10/02 03:21:15;;;;;;;7.10;2.60;;;13.90;99.90;;;;;;5054337;28;20025;-86
2021/10/02 03:23:44;;;;;;;5.50;2.30;;;13.90;99.90;;;;;;5053623;28;20393;-86
2021/10/02 03:26:11;;;;;;;3.83;2.35;;;13.90;99.90;;;;;;5053188;28;20018;-85
2021/10/02 03:28:37;;;;;;;3.33;2.17;;;13.90;99.90;;;;;;5054333;28;20057;-85
2021/10/02 03:31:04;;;;;;;2.88;1.70;;;13.90;99.90;;;;;;5052677;28;20028;-85
2021/10/02 03:33:31;;;;;;;3.38;1.83;;;13.90;99.90;;;;;;5053050;28;20029;-86
2021/10/02 03:35:58;;;;;;;3.28;1.60;;;13.90;99.90;;;;;;5053616;28;20072;-86
2021/10/02 03:38:24;;;;;;;3.13;1.58;;;13.90;99.90;;;;;;5054283;28;20052;-86
2021/10/02 03:40:50;;;;;;;2.60;1.50;;;13.90;99.90;;;;;;5053718;28;20032;-86
2021/10/02 03:43:16;;;;;;;2.80;1.67;;;13.90;99.90;;;;;;5052762;28;20017;-85
2021/10/02 03:45:41;;;;;;;2.15;1.48;;;14.00;99.90;;;;;;5052933;28;20031;-86
2021/10/02 03:48:07;;;;;;;2.42;1.45;;;14.00;99.90;;;;;;5053036;28;20402;-86
2021/10/02 03:50:34;;;;;;;2.13;1.20;;;13.90;99.90;;;;;;5052111;28;20029;-86
2021/10/02 03:53:00;;;;;;;2.55;1.17;;;14.00;99.90;;;;;;5052408;28;20021;-86
2021/10/02 03:55:26;;;;;;;2.22;1.17;;;13.90;99.90;;;;;;5052453;28;20047;-85
2021/10/02 03:57:52;;;;;;;2.53;1.10;;;13.90;99.90;;;;;;5052372;28;20035;-86
2021/10/02 04:00:18;;;;;;;1.80;1.05;;;13.90;99.90;;;;;;5052042;28;20029;-85
2021/10/02 04:02:43;;;;;;;2.15;1.27;;;13.90;99.90;;;;;;5052292;28;20390;-86
2021/10/02 04:05:10;;;;;;;3.33;0.98;;;13.90;99.90;;;;;;5053481;28;20024;-86
2021/10/02 04:07:36;;;;;;;3.47;1.42;;;13.90;99.90;;;;;;5051980;28;20021;-87
2021/10/02 04:10:07;;;;;;;4.95;1.60;;;13.90;99.90;;;;;;5052331;28;20025;-86
2021/10/02 04:12:32;;;;;;;3.55;1.70;;;13.90;99.90;;;;;;5051976;28;20086;-85
2021/10/02 04:14:58;;;;;;;3.13;1.75;;;13.90;99.90;;;;;;5052089;28;20025;-85
2021/10/02 04:17:24;;;;;;;3.63;1.52;;;13.90;99.90;;;;;;5052050;28;20482;-86
2021/10/02 04:19:50;;;;;;;2.60;1.60;;;13.90;99.90;;;;;;5051257;28;20040;-85
2021/10/02 04:22:15;;;;;;;4.38;1.73;;;13.90;99.90;;;;;;5051716;28;20515;-86
2021/10/02 04:24:42;;;;;;;3.53;1.90;;;14.00;99.90;;;;;;5052212;28;20033;-86
2021/10/02 04:27:08;;;;;;;2.83;1.83;;;13.90;99.90;;;;;;5051887;28;20029;-86
2021/10/02 04:29:34;;;;;;;2.80;1.90;;;13.90;99.90;;;;;;5051645;28;20497;-86
2021/10/02 04:32:00;;;;;;;7.18;2.67;;;13.90;99.90;;;;;;5052375;28;20167;-86
2021/10/02 04:34:26;;;;;;;3.95;1.90;;;14.00;99.90;;;;;;5053024;28;20028;-86
2021/10/02 04:36:51;;;;;;;6.78;2.38;;;14.00;99.90;;;;;;5052158;28;20112;-85
2021/10/02 04:39:17;;;;;;;3.13;2.00;;;14.00;99.90;;;;;;5053091;28;20549;-86
2021/10/02 04:41:43;;;;;;;3.63;1.83;;;14.00;99.90;;;;;;5053206;28;20036;-87
2021/10/02 04:44:08;;;;;;;4.45;2.13;;;13.90;99.90;;;;;;5051587;28;20033;-85
2021/10/02 04:46:34;;;;;;;3.83;2.15;;;13.90;99.90;;;;;;5051389;28;20025;-85
2021/10/02 04:49:00;;;;;;;6.03;2.30;;;13.90;99.90;;;;;;5052238;28;20020;-85
2021/10/02 04:51:25;;;;;;;4.65;1.98;;;13.90;99.90;;;;;;5052770;28;20025;-86
2021/10/02 04:53:51;;;;;;;3.05;2.20;;;14.00;99.90;;;;;;5051384;28;20032;-86
2021/10/02 04:56:19;;;;;;;3.13;2.10;;;13.90;99.90;;;;;;5051295;28;20424;-87
2021/10/02 04:58:45;;;;;;;3.45;2.13;;;14.00;99.90;;;;;;5051106;28;20056;-88
2021/10/02 05:01:11;;;;;;;3.80;1.98;;;13.90;99.90;;;;;;5050745;28;20057;-85
2021/10/02 05:03:38;;;;;;;5.03;2.50;;;13.90;99.90;;;;;;5051223;28;20032;-85
2021/10/02 05:06:05;;;;;;;4.28;2.40;;;14.00;99.90;;;;;;5051308;28;20029;-85
2021/10/02 05:08:32;;;;;;;5.18;2.60;;;13.90;99.90;;;;;;5051139;28;20029;-85
2021/10/02 05:10:59;;;;;;;4.13;2.33;;;13.90;99.90;;;;;;5052245;28;20056;-85
2021/10/02 05:13:25;;;;;;;4.03;1.98;;;13.90;99.90;;;;;;5051019;28;20059;-85
2021/10/02 05:15:51;;;;;;;7.47;5.03;;;13.90;99.90;;;;;;5051012;28;20428;-85
2021/10/02 05:18:17;;;;;;;8.40;4.00;;;14.00;99.90;;;;;;5052044;28;20044;-85
2021/10/02 05:20:42;;;;;;;6.13;3.75;;;13.90;99.90;;;;;;5049622;28;20051;-85
2021/10/02 05:23:08;;;;;;;6.47;3.45;;;13.90;99.90;;;;;;5050878;28;20078;-85
2021/10/02 05:25:34;;;;;;;5.30;3.20;;;13.90;99.90;;;;;;5050960;28;20025;-85
2021/10/02 05:28:00;;;;;;;5.82;3.30;;;13.90;99.90;;;;;;5050899;28;20033;-85
2021/10/02 05:30:25;;;;;;;6.55;3.40;;;13.90;99.90;;;;;;5050437;28;20021;-85
2021/10/02 05:32:51;;;;;;;6.35;2.80;;;13.90;99.90;;;;;;5050382;28;20028;-85
2021/10/02 05:35:17;;;;;;;6.45;3.30;;;13.90;99.90;;;;;;5052181;28;20021;-85
2021/10/02 05:37:43;;;;;;;6.00;3.15;;;13.80;99.90;;;;;;5052088;28;20474;-85
2021/10/02 05:40:09;;;;;;;5.85;3.80;;;13.90;99.90;;;;;;5052002;28;20104;-86
2021/10/02 05:42:34;;;;;;;7.10;4.00;;;13.80;99.90;;;;;;5052085;28;20021;-85
2021/10/02 05:45:00;;;;;;;7.28;3.88;;;13.90;99.90;;;;;;5052207;28;20033;-86
2021/10/02 05:47:25;;;;;;;6.85;3.88;;;13.90;99.90;;;;;;5050720;28;20021;-85
2021/10/02 05:49:51;;;;;;;7.82;4.10;;;13.80;99.90;;;;;;5050260;28;20098;-85
2021/10/02 05:52:17;;;;;;;6.03;3.95;;;13.90;99.90;;;;;;5050806;28;20022;-85
2021/10/02 05:54:42;;;;;;;8.82;4.22;;;13.80;99.90;;;;;;5050608;28;20547;-86
2021/10/02 05:57:08;;;;;;;7.80;4.55;;;13.80;99.90;;;;;;5051749;28;20107;-85
2021/10/02 05:59:35;;;;;;;6.75;4.45;;;13.80;99.90;;;;;;5050196;28;20413;-85
2021/10/02 06:02:01;;;;;;;8.10;4.20;;;13.80;99.90;;;;;;5051791;28;20036;-85
2021/10/02 06:04:27;;;;;;;7.38;4.35;;;13.80;99.90;;;;;;5050535;28;20025;-85
2021/10/02 06:06:52;;;;;;;6.07;4.20;;;13.80;99.90;;;;;;5050459;28;20029;-86
2021/10/02 06:09:18;;;;;;;7.13;4.57;;;13.80;99.90;;;;;;5050952;28;20375;-85
2021/10/02 06:11:44;;;;;;;9.80;4.70;;;13.80;99.90;;;;;;5050352;28;20071;-85
2021/10/02 06:14:10;;;;;;;7.90;4.10;;;13.80;99.90;;;;;;5051668;28;20033;-86
2021/10/02 06:16:38;;;;;;;7.40;4.40;;;13.80;99.90;;;;;;5050438;28;20056;-86
2021/10/02 06:19:04;;;;;;;5.93;4.10;;;13.80;99.90;;;;;;5049478;28;20366;-86
2021/10/02 06:21:30;;;;;;;9.65;5.03;;;13.80;99.90;;;;;;5050106;28;20041;-86
2021/10/02 06:23:58;;;;;;;8.38;4.88;;;13.80;99.90;;;;;;5051420;28;20405;-86
2021/10/02 06:26:29;;;;;;;8.23;4.93;;;13.80;99.90;;;;;;5050263;28;20405;-86
2021/10/02 06:28:55;;;;;;;6.30;4.50;;;13.90;99.90;;;;;;5050749;28;20025;-86
2021/10/02 06:31:21;;;;;;;5.47;4.00;;;13.90;99.90;;;;;;5050084;28;20071;-86
2021/10/02 06:33:47;;;;;;;8.07;4.18;;;13.90;99.90;;;;;;5054549;28;20405;-86
2021/10/02 06:36:13;;;;;;;6.45;4.00;;;13.90;99.90;;;;;;5055170;28;20020;-86
2021/10/02 06:38:39;;;;;;;7.13;4.00;;;13.90;99.90;;;;;;5053803;28;20055;-86
2021/10/02 06:41:05;;;;;;;9.88;4.45;;;13.90;99.90;;;;;;5053370;28;20112;-86
2021/10/02 06:43:31;;;;;;;6.47;3.72;;;13.90;99.90;;;;;;5053603;28;20032;-85
2021/10/02 06:45:57;;;;;;;6.80;3.40;;;13.90;99.90;;;;;;5053623;28;20020;-86
2021/10/02 06:48:23;;;;;;;5.68;3.13;;;13.90;99.90;;;;;;5053500;28;20127;-86
2021/10/02 06:50:49;;;;;;;10.93;4.00;;;13.90;99.90;;;;;;5053011;28;20134;-85
2021/10/02 06:53:16;;;;;;;8.35;3.60;;;13.90;99.90;;;;;;5053489;28;20025;-86
2021/10/02 06:55:42;;;;;;;3.83;2.67;;;14.00;99.90;;;;;;5053345;28;20024;-86
2021/10/02 06:58:09;;;;;;;5.35;2.83;;;14.00;99.90;;;;;;5054942;28;20083;-86
2021/10/02 07:00:35;;;;;;;6.38;3.30;;;14.00;99.90;;;;;;5053233;28;20021;-86
2021/10/02 07:03:01;;;;;;;8.13;4.00;;;14.00;99.90;;;;;;5053404;28;20032;-86
2021/10/02 07:05:26;;;;;;;5.13;2.97;;;14.00;99.90;;;;;;5053343;28;20029;-86
2021/10/02 07:07:52;;;;;;;5.60;3.40;;;14.00;99.90;;;;;;5054364;28;20474;-87
2021/10/02 07:10:20;;;;;;;5.22;3.30;;;14.00;99.90;;;;;;5054907;28;20060;-86
2021/10/02 07:15:49;;;;;;;5.28;3.40;;;14.00;99.90;;;;;;5054803;28;20060;-85
2021/10/02 07:18:17;;;;;;;9.40;4.28;;;14.00;99.90;;;;;;5037488;28;20045;-86
2021/10/02 07:20:43;;;;;;;7.35;3.50;;;14.00;99.90;;;;;;5053429;28;20372;-86
2021/10/02 07:23:08;;;;;;;7.63;3.65;;;14.10;99.90;;;;;;5053681;28;20025;-85
2021/10/02 07:25:34;;;;;;;5.93;3.50;;;14.10;99.90;;;;;;5053785;28;20078;-86
2021/10/02 07:28:00;;;;;;;6.20;3.60;;;14.00;99.90;;;;;;5053325;28;20028;-86
2021/10/02 07:30:26;;;;;;;6.63;3.90;;;14.10;99.90;;;;;;5053897;28;20126;-85
2021/10/02 07:32:51;;;;;;;5.75;3.38;;;14.10;99.90;;;;;;5053505;28;20028;-86
2021/10/02 07:35:17;;;;;;;6.72;3.53;;;14.10;99.90;;;;;;5054012;28;20021;-85
2021/10/02 07:37:44;;;;;;;8.40;4.38;;;14.10;99.90;;;;;;5053774;28;20032;-86
2021/10/02 07:40:12;;;;;;;7.05;3.65;;;14.20;99.90;;;;;;5054819;28;20029;-85
2021/10/02 07:42:39;;;;;;;7.55;3.75;;;14.20;99.90;;;;;;5054347;28;20053;-86
2021/10/02 07:45:08;;;;;;;6.28;3.60;;;14.20;99.90;;;;;;5051886;28;20031;-85
2021/10/02 07:47:40;;;;;;;8.73;3.58;;;14.20;99.90;;;;;;5052593;28;20470;-86
2021/10/02 07:50:09;;;;;;;6.88;4.50;;;14.20;99.90;;;;;;5052179;28;20470;-86
2021/10/02 07:52:35;;;;;;;5.55;3.15;;;14.20;99.90;;;;;;5052600;28;20453;-85
2021/10/02 07:55:04;;;;;;;6.75;4.03;;;14.30;99.90;;;;;;5054193;28;20104;-86
2021/10/02 07:57:30;;;;;;;5.65;3.50;;;14.30;99.90;;;;;;5052618;28;20116;-85
2021/10/02 07:59:57;;;;;;;5.22;3.20;;;14.30;99.90;;;;;;5053836;28;20033;-85
2021/10/02 08:02:23;;;;;;;4.97;2.95;;;14.30;99.90;;;;;;5053960;28;20028;-86
2021/10/02 08:04:49;;;;;;;5.78;2.83;;;14.40;99.90;;;;;;5052552;28;20033;-85
2021/10/02 08:07:15;;;;;;;6.53;2.90;;;14.40;99.90;;;;;;5052682;28;20051;-85
2021/10/02 08:09:41;;;;;;;5.78;3.00;;;14.40;99.90;;;;;;5051934;28;20025;-86
2021/10/02 08:12:08;;;;;;;4.72;2.90;;;14.50;99.90;;;;;;5052823;28;20048;-86
2021/10/02 08:14:35;;;;;;;5.82;3.10;;;14.50;99.90;;;;;;5053547;28;20070;-86
2021/10/02 08:17:01;;;;;;;6.38;3.00;;;14.50;99.90;;;;;;5052069;28;20496;-86
2021/10/02 08:19:31;;;;;;;8.82;4.30;;;14.60;99.90;;;;;;5052478;28;20028;-86
2021/10/02 08:21:58;;;;;;;4.75;2.90;;;14.60;99.90;;;;;;5052999;28;20017;-86
2021/10/02 08:24:25;;;;;;;5.28;2.90;;;14.60;99.90;;;;;;5053060;28;20029;-86
2021/10/02 08:26:53;;;;;;;3.67;2.30;;;14.60;99.90;;;;;;5051628;28;20487;-87
2021/10/02 08:29:20;;;;;;;5.22;2.92;;;14.70;99.90;;;;;;5052271;28;20094;-86
2021/10/02 08:31:47;;;;;;;3.65;2.50;;;14.70;99.90;;;;;;5052924;28;20021;-85
2021/10/02 08:34:12;;;;;;;4.80;2.50;;;14.70;99.90;;;;;;5051478;28;20020;-86
2021/10/02 08:36:38;;;;;;;5.47;3.08;;;14.70;99.90;;;;;;5052854;28;20017;-86
2021/10/02 08:39:04;;;;;;;6.50;2.80;;;14.70;99.90;;;;;;5051043;28;20386;-86
2021/10/02 08:41:30;;;;;;;4.45;2.22;;;14.80;99.90;;;;;;5051366;28;20025;-87
2021/10/02 08:43:56;;;;;;;4.35;2.17;;;14.80;99.90;;;;;;5052874;28;20096;-86
2021/10/02 08:46:23;;;;;;;3.55;2.10;;;14.80;99.90;;;;;;5052676;28;20025;-86
2021/10/02 08:49:26;;;;;;;3.83;2.30;;;14.90;99.90;;;;;;5050996;28;20469;-86
2021/10/02 08:51:52;;;;;;;3.42;1.90;;;14.90;99.90;;;;;;5052613;28;20048;-86
2021/10/02 08:54:19;;;;;;;5.55;2.50;;;15.00;99.90;;;;;;5052584;28;20025;-86
2021/10/02 08:56:46;;;;;;;2.55;2.00;;;15.00;99.90;;;;;;5052317;28;20028;-86
2021/10/02 08:59:14;;;;;;;3.75;2.30;;;15.00;99.90;;;;;;5051859;28;20058;-86
2021/10/02 09:01:41;;;;;;;3.33;2.00;;;15.10;99.90;;;;;;5051360;28;20029;-86
2021/10/02 09:04:07;;;;;;;4.15;1.90;;;15.10;99.90;;;;;;5051267;28;20028;-85
2021/10/02 09:06:34;;;;;;;4.78;1.80;;;15.10;99.90;;;;;;5050869;28;20052;-85
2021/10/02 09:09:00;;;;;;;3.72;1.90;;;15.20;99.90;;;;;;5052097;28;20477;-85
2021/10/02 09:11:27;;;;;;;3.67;1.80;;;15.30;99.90;;;;;;5051049;28;21045;-86
2021/10/02 09:13:53;;;;;;;2.65;1.50;;;15.30;99.90;;;;;;5052194;28;20064;-86
2021/10/02 09:16:19;;;;;;;2.88;1.52;;;15.30;99.90;;;;;;5052323;28;20334;-85
2021/10/02 09:18:46;;;;;;;2.95;1.73;;;15.30;99.90;;;;;;5050794;28;20166;-85
2021/10/02 09:21:12;;;;;;;4.68;2.40;;;15.30;99.90;;;;;;5050930;28;20515;-86
2021/10/02 09:23:47;;;;;;;5.43;1.95;;;15.30;99.90;;;;;;5051286;28;20036;-86
2021/10/02 09:26:13;;;;;;;4.25;1.88;;;15.30;99.90;;;;;;5051345;28;20130;-86
2021/10/02 09:28:49;;;;;;;3.60;1.80;;;15.30;99.90;;;;;;5052103;28;20032;-85
2021/10/02 09:31:18;;;;;;;2.35;1.40;;;15.30;99.90;;;;;;5052243;28;20527;-86
2021/10/02 09:33:46;;;;;;;4.35;1.70;;;15.30;99.90;;;;;;5052335;28;20421;-86
2021/10/02 09:36:19;;;;;;;4.10;1.70;;;15.30;99.90;;;;;;5051448;28;20074;-86
2021/10/02 09:38:49;;;;;;;3.17;1.30;;;15.20;99.90;;;;;;5052078;28;20029;-86
2021/10/02 09:41:15;;;;;;;2.60;1.38;;;15.20;99.90;;;;;;5051890;28;20025;-86
2021/10/02 09:43:50;;;;;;;2.83;1.50;;;15.20;99.90;;;;;;5051435;28;20039;-85
2021/10/02 09:46:16;;;;;;;2.33;1.50;;;15.30;99.90;;;;;;5050497;28;20031;-85
2021/10/02 09:48:53;;;;;;;2.72;1.48;;;15.30;99.90;;;;;;5051761;28;20033;-85
2021/10/02 09:51:19;;;;;;;4.22;1.40;;;15.40;99.90;;;;;;5050681;28;20056;-86
2021/10/02 09:53:45;;;;;;;3.75;1.60;;;15.40;99.90;;;;;;5050704;28;20021;-86
2021/10/02 09:56:13;;;;;;;3.78;1.65;;;15.40;99.90;;;;;;5051870;28;20028;-85
2021/10/02 09:58:40;;;;;;;2.90;1.40;;;15.40;99.90;;;;;;5051675;28;20043;-85
2021/10/02 10:01:08;;;;;;;3.03;1.55;;;15.40;99.90;;;;;;5049834;28;20029;-86
2021/10/02 10:03:46;;;;;;;3.57;1.53;;;15.40;99.90;;;;;;5051820;28;20021;-86
2021/10/02 10:06:17;;;;;;;4.53;1.88;;;15.40;99.90;;;;;;5050369;28;20021;-86
2021/10/02 10:08:42;;;;;;;2.53;1.60;;;15.40;99.90;;;;;;5054791;28;20029;-85
2021/10/02 10:11:10;;;;;;;4.53;1.58;;;15.30;99.90;;;;;;5054787;28;20158;-86
2021/10/02 10:13:36;;;;;;;4.35;2.17;;;15.30;99.90;;;;;;5054327;28;20021;-86
2021/10/02 10:16:06;;;;;;;3.47;2.03;;;15.20;99.90;;;;;;5054695;28;20098;-86
2021/10/02 10:18:34;;;;;;;2.55;1.80;;;15.20;99.90;;;;;;5055460;28;20410;-86
2021/10/02 10:21:04;;;;;;;2.55;1.70;;;15.20;99.90;;;;;;5053660;28;20029;-86
2021/10/02 10:23:34;;;;;;;5.68;2.13;;;15.20;99.90;;;;;;5054137;28;20036;-86
2021/10/02 10:26:06;;;;;;;3.20;1.83;;;15.20;99.90;;;;;;5053982;28;20025;-86
2021/10/02 10:28:40;;;;;;;3.65;1.80;;;15.20;99.90;;;;;;5054161;28;20035;-86
2021/10/02 10:31:18;;;;;;;2.67;1.35;;;15.20;99.90;;;;;;5053157;28;20060;-86
2021/10/02 10:33:46;;;;;;;3.42;1.80;;;15.20;99.90;;;;;;5055295;28;20092;-85
2021/10/02 10:36:13;;;;;;;3.80;1.70;;;15.20;99.90;;;;;;5053966;28;20033;-86
2021/10/02 10:38:41;;;;;;;4.22;1.67;;;15.30;99.90;;;;;;5055739;28;20028;-85
2021/10/02 10:41:07;;;;;;;3.58;1.77;;;15.30;99.90;;;;;;5054719;28;20040;-85
2021/10/02 10:43:34;;;;;;;4.05;1.95;;;15.40;99.90;;;;;;5055935;28;20490;-85
2021/10/02 10:46:05;;;;;;;3.35;1.98;;;15.40;99.90;;;;;;5054973;28;20124;-85
2021/10/02 10:48:31;;;;;;;3.25;1.75;;;15.50;99.90;;;;;;5054169;28;20090;-85
2021/10/02 10:51:03;;;;;;;5.45;2.03;;;15.50;99.90;;;;;;5054846;28;20051;-85
2021/10/02 10:53:43;;;;;;;3.00;1.90;;;15.60;99.90;;;;;;5054490;28;20032;-85
2021/10/02 10:56:11;;;;;;;4.22;1.98;;;15.60;99.90;;;;;;5056090;28;20056;-85
2021/10/02 10:58:37;;;;;;;2.60;1.58;;;15.60;99.90;;;;;;5055212;28;20103;-86
2021/10/02 11:01:06;;;;;;;3.25;1.92;;;15.70;99.90;;;;;;5053550;28;20033;-85
2021/10/02 11:03:42;;;;;;;;;;;15.70;99.90;;;;;;5054063;28;20033;-85
2021/10/02 11:06:16;;;;;;;3.63;1.98;;;15.70;99.90;;;;;;5053787;28;19912;-85
2021/10/02 11:09:00;;;;;;;3.70;2.15;;;15.70;99.90;;;;;;5053746;28;20143;-86
2021/10/02 11:12:03;;;;;;;3.65;2.22;;;15.70;99.90;;;;;;5055445;28;20025;-85
2021/10/02 11:14:47;;;;;;;5.55;2.03;;;15.70;99.90;;;;;;5057012;28;20028;-85
2021/10/02 11:17:14;;;;;;;3.33;1.88;;;15.70;99.90;;;;;;5058249;28;20029;-86
2021/10/02 11:19:43;;;;;;;5.00;2.97;;;15.80;99.90;;;;;;5057540;28;20037;-86
2021/10/02 11:22:34;;;;;;;;;;;15.80;99.90;;;;;;5057607;28;20029;-85
2021/10/02 11:25:00;;;;;;;6.78;3.80;;;15.90;99.90;;;;;;5074700;28;19943;-86
2021/10/02 11:27:26;;;;;;;5.25;2.92;;;15.90;99.90;;;;;;5056320;28;20021;-86
2021/10/02 11:29:52;;;;;;;4.53;2.30;;;16.00;99.90;;;;;;5052595;28;20075;-85
2021/10/02 11:32:31;;;;;;;4.85;2.78;;;16.00;99.90;;;;;;5054188;28;20029;-85
2021/10/02 11:35:15;;;;;;;;;;;16.00;99.90;;;;;;5054543;28;20025;-86
2021/10/02 11:37:54;;;;;;;4.50;2.47;;;16.00;99.90;;;;;;5052729;28;19904;-86
2021/10/02 11:40:32;;;;;;;4.82;2.58;;;16.10;99.90;;;;;;5052198;28;20036;-85
2021/10/02 11:43:17;;;;;;;4.18;2.20;;;16.10;99.90;;;;;;5052614;28;20075;-86
2021/10/02 11:45:45;;;;;;;3.20;1.95;;;16.20;99.90;;;;;;5052797;28;20033;-86
2021/10/02 11:48:14;;;;;;;3.72;1.88;;;16.20;99.90;;;;;;5055544;28;20052;-86
2021/10/02 11:50:40;;;;;;;5.25;2.08;;;16.20;99.90;;;;;;5055422;28;20099;-86
2021/10/02 11:53:05;;;;;;;3.45;2.00;;;16.30;99.90;;;;;;5054925;28;20028;-86
2021/10/02 11:55:40;;;;;;;3.70;2.03;;;16.30;99.90;;;;;;5054513;28;20064;-85
2021/10/02 11:58:11;;;;;;;2.72;1.65;;;16.30;99.90;;;;;;5054298;28;20100;-86
2021/10/02 12:00:48;;;;;;;2.78;1.60;;;16.30;99.90;;;;;;5053909;28;20437;-86
2021/10/02 12:03:18;;;;;;;2.88;1.40;;;16.30;99.90;;;;;;5055062;28;20367;-86
2021/10/02 12:05:46;;;;;;;3.72;1.80;;;16.30;99.90;;;;;;5054127;28;20036;-86
2021/10/02 12:08:13;;;;;;;3.47;1.80;;;16.40;99.90;;;;;;5054516;28;20382;-86
2021/10/02 12:10:56;;;;;;;2.67;1.63;;;16.40;99.90;;;;;;5053643;28;20725;-86
2021/10/02 12:13:24;;;;;;;3.33;1.60;;;16.40;99.90;;;;;;5053114;28;20051;-86
2021/10/02 12:16:04;;;;;;;2.53;1.48;;;16.40;99.90;;;;;;5052970;28;20035;-86
2021/10/02 12:18:56;;;;;;;3.10;1.50;;;16.40;99.90;;;;;;5052648;28;20083;-86
2021/10/02 12:21:22;;;;;;;2.20;1.52;;;16.30;99.90;;;;;;5053615;28;20039;-86
2021/10/02 12:24:20;;;;;;;3.33;1.67;;;16.30;99.90;;;;;;5052027;28;20021;-86
2021/10/02 12:27:15;;;;;;;3.05;1.70;;;16.40;99.90;;;;;;5019120;28;20040;-86
2021/10/02 12:29:47;;;;;;;4.18;1.45;;;16.40;99.90;;;;;;5051476;28;20021;-86
2021/10/02 12:32:15;;;;;;;3.22;1.50;;;16.50;99.90;;;;;;5051953;28;20017;-86
2021/10/02 12:34:46;;;;;;;2.95;1.35;;;16.50;99.90;;;;;;5051919;28;20021;-86
2021/10/02 12:37:18;;;;;;;2.30;1.40;;;16.50;99.90;;;;;;5053226;28;20159;-85
2021/10/02 12:39:45;;;;;;;3.72;1.10;;;16.50;99.90;;;;;;5051348;28;20025;-86
2021/10/02 12:42:17;;;;;;;1.77;1.00;;;16.40;99.90;;;;;;5053043;28;20032;-86
2021/10/02 12:44:48;;;;;;;1.45;0.95;;;16.40;99.90;;;;;;5052072;28;20025;-85
2021/10/02 12:47:14;;;;;;;2.20;1.02;;;16.40;99.90;;;;;;5051639;28;20045;-86
2021/10/02 12:49:45;;;;;;;2.22;0.90;;;16.40;99.90;;;;;;5050913;28;20028;-85
2021/10/02 12:52:13;;;;;;;1.85;0.88;;;16.50;99.90;;;;;;5051454;28;20052;-86
2021/10/02 12:54:39;;;;;;;1.30;0.90;;;16.50;99.90;;;;;;5052992;28;20367;-86
2021/10/02 12:57:13;;;;;;;1.67;0.90;;;16.60;99.90;;;;;;5051628;28;20075;-86
2021/10/02 12:59:48;;;;;;;3.33;1.70;;;16.70;99.90;;;;;;5052239;28;20477;-86
2021/10/02 13:02:16;;;;;;;4.65;1.60;;;16.70;99.90;;;;;;5051555;28;20025;-85
2021/10/02 13:04:43;;;;;;;2.30;1.10;;;16.80;99.90;;;;;;5052673;28;20470;-85
2021/10/02 13:07:08;;;;;;;2.75;1.10;;;16.80;99.90;;;;;;5051684;28;20025;-86
2021/10/02 13:10:14;;;;;;;3.40;0.98;;;16.80;99.90;;;;;;5050874;28;20049;-86
2021/10/02 13:12:43;;;;;;;1.50;1.10;;;16.80;99.90;;;;;;5050718;28;20296;-86
2021/10/02 13:15:24;;;;;;;;;;;16.80;99.90;;;;;;5051907;28;20033;-86
2021/10/02 13:17:59;;;;;;;2.38;1.40;;;16.80;99.90;;;;;;5051811;28;20381;-85
2021/10/02 13:20:25;;;;;;;1.92;1.10;;;16.80;99.90;;;;;;5052298;28;20492;-86
2021/10/02 13:22:51;;;;;;;1.17;0.90;;;16.80;99.90;;;;;;5051160;28;20086;-85
2021/10/02 13:25:28;;;;;;;3.55;1.60;;;16.80;99.90;;;;;;5051293;28;20488;-85
2021/10/02 13:27:59;;;;;;;2.92;1.10;;;16.90;99.90;;;;;;5051427;28;20040;-85
2021/10/02 13:30:27;;;;;;;1.42;0.98;;;16.90;99.90;;;;;;5051189;28;20025;-85
2021/10/02 13:33:07;;;;;;;2.60;1.10;;;16.90;99.90;;;;;;5052816;28;20029;-85
2021/10/02 13:35:39;;;;;;;2.30;1.15;;;16.90;99.90;;;;;;5052719;28;20021;-85
2021/10/02 13:38:06;;;;;;;1.42;1.00;;;16.80;99.90;;;;;;5052455;28;20029;-85
2021/10/02 13:40:37;;;;;;;3.90;1.30;;;16.80;99.90;;;;;;5050906;28;20060;-85
2021/10/02 13:43:05;;;;;;;2.40;1.23;;;16.80;99.90;;;;;;5050318;28;20112;-85
2021/10/02 13:45:33;;;;;;;2.33;1.20;;;16.80;99.90;;;;;;5052657;28;20029;-85
2021/10/02 13:48:12;;;;;;;1.88;1.20;;;16.70;99.90;;;;;;5051267;28;20025;-85
2021/10/02 13:50:41;;;;;;;3.08;1.10;;;16.70;99.90;;;;;;5050782;28;20024;-85
2021/10/02 13:53:07;;;;;;;3.35;1.70;;;16.70;99.90;;;;;;5051349;28;20025;-85
2021/10/02 13:55:33;;;;;;;3.80;1.48;;;16.70;99.90;;;;;;5052563;28;20076;-85
2021/10/02 13:58:00;;;;;;;4.70;1.70;;;16.80;99.90;;;;;;5050897;28;20099;-85
2021/10/02 14:00:27;;;;;;;2.85;1.10;;;16.80;99.90;;;;;;5050390;28;20136;-85